Time;durP1;ratioP1;P1;durP2;ratioP2;P2;SDS_P1;SDS_P2;PMS_P1;PMS_P2;Temp;Humidity;BMP_temperature;BMP_pressure;BME280_temperature;BME280_humidity;BME280_pressure;Samples;Min_cycle;Max_cycle;Signal;HPM_P1;HPM_P2
2021/12/28 00:00:43;;;;;;;;;;;9.50;96.90;;;;;;5007085;28;19921;-61
2021/12/28 00:03:09;;;;;;;;;;;9.50;96.90;;;;;;5000829;28;19987;-62
2021/12/28 00:05:34;;;;;;;;;;;9.50;96.90;;;;;;5006095;28;19920;-61
2021/12/28 00:07:59;;;;;;;;;;;9.50;96.90;;;;;;5004752;28;19917;-62
2021/12/28 00:10:25;;;;;;;;;;;9.40;96.90;;;;;;5011544;28;19997;-62
2021/12/28 00:12:50;;;;;;;;;;;9.40;96.90;;;;;;4995669;28;20276;-62
2021/12/28 00:18:04;;;;;;;;;;;9.40;96.90;;;;;;5017822;28;19918;-61
2021/12/28 00:20:39;;;;;;;;;;;9.40;96.80;;;;;;5002230;28;19913;-61
2021/12/28 00:23:06;;;;;;;;;;;9.40;96.90;;;;;;5004249;28;19944;-62
2021/12/28 00:25:31;;;;;;;;;;;9.40;96.90;;;;;;4997646;28;19909;-61
2021/12/28 00:27:57;;;;;;;;;;;9.40;96.90;;;;;;5017480;28;20260;-62
2021/12/28 00:30:22;;;;;;;;;;;9.40;96.90;;;;;;5019586;28;19944;-62
2021/12/28 00:32:52;;;;;;;;;;;9.30;96.90;;;;;;5025146;28;20303;-62
2021/12/28 00:35:19;;;;;;;;;;;9.40;96.90;;;;;;5013432;28;19917;-62
2021/12/28 00:37:44;;;;;;;;;;;9.30;96.90;;;;;;5012031;28;19917;-62
2021/12/28 00:40:10;;;;;;;;;;;9.30;96.90;;;;;;5024183;28;20226;-61
2021/12/28 00:42:35;;;;;;;;;;;9.30;96.90;;;;;;5030962;28;19917;-62
2021/12/28 00:45:01;;;;;;;;;;;9.30;96.90;;;;;;5003577;28;20335;-61
2021/12/28 00:47:26;;;;;;;;;;;9.30;96.90;;;;;;5016234;28;19948;-62
2021/12/28 00:49:51;;;;;;;;;;;9.30;96.90;;;;;;5014938;28;19909;-62
2021/12/28 00:52:17;;;;;;;;;;;9.30;96.90;;;;;;5030826;28;19919;-62
2021/12/28 00:54:42;;;;;;;;;;;9.30;96.90;;;;;;4989135;28;19933;-62
2021/12/28 00:57:08;;;;;;;;;;;9.30;96.90;;;;;;4998292;28;19928;-62
2021/12/28 00:59:33;;;;;;;;;;;9.30;96.90;;;;;;5024121;28;20064;-61
2021/12/28 01:01:59;;;;;;;;;;;9.30;96.90;;;;;;5030728;28;19925;-62
2021/12/28 01:04:25;;;;;;;;;;;9.30;96.90;;;;;;5005928;28;19952;-62
2021/12/28 01:06:51;;;;;;;;;;;9.20;96.90;;;;;;5029179;28;19994;-62
2021/12/28 01:09:16;;;;;;;;;;;9.20;96.90;;;;;;5005357;28;20381;-62
2021/12/28 01:11:42;;;;;;;;;;;9.20;97.10;;;;;;5004597;28;19909;-62
2021/12/28 01:14:07;;;;;;;;;;;9.20;96.80;;;;;;5030286;28;19971;-61
2021/12/28 01:16:33;;;;;;;;;;;9.20;96.90;;;;;;5000157;28;19913;-61
2021/12/28 01:18:58;;;;;;;;;;;9.20;96.80;;;;;;4996749;28;19919;-61
2021/12/28 01:21:24;;;;;;;;;;;9.20;96.90;;;;;;5021567;28;19909;-62
2021/12/28 01:23:49;;;;;;;;;;;9.20;96.90;;;;;;5030457;28;20401;-62
2021/12/28 01:26:15;;;;;;;;;;;9.20;96.90;;;;;;5002952;28;20015;-62
2021/12/28 01:28:40;;;;;;;;;;;9.20;96.90;;;;;;5006124;28;19956;-62
2021/12/28 01:31:05;;;;;;;;;;;9.20;96.90;;;;;;5027102;28;19910;-61
2021/12/28 01:33:31;;;;;;;;;;;9.20;96.90;;;;;;5006096;28;20345;-62
2021/12/28 01:35:58;;;;;;;;;;;9.20;96.90;;;;;;5023972;28;19979;-62
2021/12/28 01:38:23;;;;;;;;;;;9.20;97.00;;;;;;5021343;28;20762;-63
2021/12/28 01:40:49;;;;;;;;;;;9.20;96.90;;;;;;5012198;28;19917;-62
2021/12/28 01:43:15;;;;;;;;;;;9.20;96.90;;;;;;4995464;28;19909;-63
2021/12/28 01:45:51;;;;;;;;;;;9.20;96.90;;;;;;5026750;28;19916;-62
2021/12/28 01:48:18;;;;;;;;;;;9.20;96.90;;;;;;5012661;28;19990;-62
2021/12/28 01:50:44;;;;;;;;;;;9.20;96.90;;;;;;5003268;28;20002;-62
2021/12/28 01:53:10;;;;;;;;;;;9.20;96.90;;;;;;5006273;28;19949;-62
2021/12/28 01:55:36;;;;;;;;;;;9.10;96.90;;;;;;5016932;28;19910;-62
2021/12/28 01:58:01;;;;;;;;;;;9.20;96.90;;;;;;5011503;28;19917;-62
2021/12/28 02:00:27;;;;;;;;;;;9.20;97.20;;;;;;5028467;28;19925;-61
2021/12/28 02:02:52;;;;;;;;;;;9.20;96.90;;;;;;5002878;28;20353;-62
2021/12/28 02:05:18;;;;;;;;;;;9.10;96.90;;;;;;4997094;28;19920;-62
2021/12/28 02:07:43;;;;;;;;;;;9.10;96.90;;;;;;5023467;28;19920;-62
2021/12/28 02:10:09;;;;;;;;;;;9.10;96.80;;;;;;5003142;28;19957;-62
2021/12/28 02:12:34;;;;;;;;;;;9.10;96.90;;;;;;5003873;28;19910;-62
2021/12/28 02:15:06;;;;;;;;;;;9.10;96.90;;;;;;4996719;28;19921;-62
2021/12/28 02:17:32;;;;;;;;;;;9.10;96.90;;;;;;5022255;28;20385;-62
2021/12/28 02:20:01;;;;;;;;;;;9.10;97.10;;;;;;5007766;28;19997;-61
2021/12/28 02:22:26;;;;;;;;;;;9.10;96.90;;;;;;5015169;28;20457;-62
2021/12/28 02:24:51;;;;;;;;;;;9.10;96.80;;;;;;5014023;28;19921;-62
2021/12/28 02:27:17;;;;;;;;;;;9.10;96.90;;;;;;5010631;28;20374;-62
2021/12/28 02:29:42;;;;;;;;;;;9.10;96.80;;;;;;5026258;28;19909;-62
2021/12/28 02:32:08;;;;;;;;;;;9.10;96.80;;;;;;5019039;28;19924;-62
2021/12/28 02:34:33;;;;;;;;;;;9.10;96.80;;;;;;5003331;28;19909;-62
2021/12/28 02:36:59;;;;;;;;;;;9.10;96.80;;;;;;5000978;28;20380;-61
2021/12/28 02:39:24;;;;;;;;;;;9.10;96.90;;;;;;5000506;28;19920;-62
2021/12/28 02:41:49;;;;;;;;;;;9.10;96.90;;;;;;5010560;28;20071;-62
2021/12/28 02:44:15;;;;;;;;;;;9.10;96.90;;;;;;5018124;28;19910;-62
2021/12/28 02:46:40;;;;;;;;;;;9.10;96.90;;;;;;4995741;28;20377;-62
2021/12/28 02:49:06;;;;;;;;;;;9.10;96.80;;;;;;4998336;28;19991;-62
2021/12/28 02:51:31;;;;;;;;;;;9.10;96.90;;;;;;5022001;28;19909;-62
2021/12/28 02:53:57;;;;;;;;;;;9.10;96.80;;;;;;5028426;28;19909;-62
2021/12/28 02:56:22;;;;;;;;;;;9.10;96.80;;;;;;5020316;28;19919;-62
2021/12/28 02:58:48;;;;;;;;;;;9.10;96.80;;;;;;4991097;28;19917;-62
2021/12/28 03:01:15;;;;;;;;;;;9.10;96.80;;;;;;5022797;28;20477;-62
2021/12/28 03:03:41;;;;;;;;;;;9.00;96.70;;;;;;4999491;28;19987;-62
2021/12/28 03:06:08;;;;;;;;;;;9.00;96.80;;;;;;5007501;28;20416;-62
2021/12/28 03:08:34;;;;;;;;;;;9.00;96.70;;;;;;5025997;28;20004;-62
2021/12/28 03:11:01;;;;;;;;;;;9.00;96.80;;;;;;5002880;28;20254;-61
2021/12/28 03:13:27;;;;;;;;;;;9.00;96.80;;;;;;5017259;28;20377;-62
2021/12/28 03:15:53;;;;;;;;;;;9.00;96.80;;;;;;4993737;28;19957;-62
2021/12/28 03:18:18;;;;;;;;;;;9.00;96.80;;;;;;5028546;28;19999;-62
2021/12/28 03:20:44;;;;;;;;;;;9.00;96.80;;;;;;4994651;28;19913;-62
2021/12/28 03:23:09;;;;;;;;;;;9.00;96.80;;;;;;5003122;28;21374;-62
2021/12/28 03:25:35;;;;;;;;;;;9.00;96.80;;;;;;5001328;28;19976;-62
2021/12/28 03:28:01;;;;;;;;;;;9.00;96.80;;;;;;4997162;28;19918;-62
2021/12/28 03:30:26;;;;;;;;;;;9.00;96.80;;;;;;5012217;28;20679;-61
2021/12/28 03:32:52;;;;;;;;;;;9.00;96.80;;;;;;4996118;28;19910;-62
2021/12/28 03:35:17;;;;;;;;;;;9.00;96.90;;;;;;5016117;28;20572;-62
2021/12/28 03:37:43;;;;;;;;;;;9.00;96.80;;;;;;5006904;28;19924;-62
2021/12/28 03:40:09;;;;;;;;;;;9.00;96.80;;;;;;4989279;28;19913;-62
2021/12/28 03:42:35;;;;;;;;;;;9.00;96.70;;;;;;5008412;28;19989;-62
2021/12/28 03:45:00;;;;;;;;;;;9.00;96.70;;;;;;5001992;28;19921;-62
2021/12/28 03:47:26;;;;;;;;;;;9.00;96.70;;;;;;5019414;28;19913;-61
2021/12/28 03:49:51;;;;;;;;;;;9.00;96.70;;;;;;5022080;28;19913;-62
2021/12/28 03:52:17;;;;;;;;;;;9.00;96.70;;;;;;4983848;28;20241;-62
2021/12/28 03:54:42;;;;;;;;;;;9.00;96.70;;;;;;5000849;28;19909;-62
2021/12/28 03:57:08;;;;;;;;;;;8.80;96.60;;;;;;5027502;28;19917;-62
2021/12/28 03:59:33;;;;;;;;;;;9.00;96.70;;;;;;5013974;28;19971;-62
2021/12/28 04:01:58;;;;;;;;;;;9.00;96.70;;;;;;5019836;28;19925;-62
2021/12/28 04:04:24;;;;;;;;;;;9.00;96.70;;;;;;5020427;28;20342;-61
2021/12/28 04:06:49;;;;;;;;;;;9.00;96.70;;;;;;5017652;28;20214;-62
2021/12/28 04:09:22;;;;;;;;;;;9.00;96.70;;;;;;5020838;28;19964;-62
2021/12/28 04:11:48;;;;;;;;;;;9.00;96.70;;;;;;5019317;28;19963;-61
2021/12/28 04:14:13;;;;;;;;;;;9.00;96.70;;;;;;5020357;28;19909;-62
2021/12/28 04:16:39;;;;;;;;;;;9.00;96.70;;;;;;5001326;28;19953;-62
2021/12/28 04:19:04;;;;;;;;;;;9.00;96.70;;;;;;5000339;28;19917;-62
2021/12/28 04:21:30;;;;;;;;;;;9.00;96.70;;;;;;5019635;28;20389;-62
2021/12/28 04:23:55;;;;;;;;;;;9.00;96.70;;;;;;5018693;28;19943;-62
2021/12/28 04:26:21;;;;;;;;;;;9.00;96.70;;;;;;5020858;28;20317;-61
2021/12/28 04:28:47;;;;;;;;;;;9.00;96.70;;;;;;5000136;28;19954;-62
2021/12/28 04:31:12;;;;;;;;;;;8.90;96.70;;;;;;4997597;28;19952;-61
2021/12/28 04:33:38;;;;;;;;;;;9.00;96.70;;;;;;5022002;28;19923;-61
2021/12/28 04:36:13;;;;;;;;;;;9.00;96.70;;;;;;4999564;28;19913;-61
2021/12/28 04:38:38;;;;;;;;;;;9.00;96.70;;;;;;5020466;28;19945;-62
2021/12/28 04:41:04;;;;;;;;;;;9.00;96.70;;;;;;5008713;28;19913;-61
2021/12/28 04:43:30;;;;;;;;;;;9.00;96.70;;;;;;5003110;28;19959;-61
2021/12/28 04:45:55;;;;;;;;;;;9.00;96.70;;;;;;5011138;28;19917;-61
2021/12/28 04:48:21;;;;;;;;;;;9.00;96.70;;;;;;5004018;28;20129;-61
2021/12/28 04:50:46;;;;;;;;;;;9.00;96.70;;;;;;5021388;28;19920;-62
2021/12/28 04:53:12;;;;;;;;;;;9.00;96.70;;;;;;5020866;28;19916;-62
2021/12/28 04:55:38;;;;;;;;;;;9.00;96.70;;;;;;5001473;28;20306;-61
2021/12/28 04:58:03;;;;;;;;;;;9.00;96.60;;;;;;5003813;28;19913;-61
2021/12/28 05:00:29;;;;;;;;;;;9.00;96.70;;;;;;5014884;28;19917;-62
2021/12/28 05:02:54;;;;;;;;;;;9.00;96.80;;;;;;5003652;28;19917;-61
2021/12/28 05:05:20;;;;;;;;;;;9.00;96.80;;;;;;5018845;28;19967;-62
2021/12/28 05:07:45;;;;;;;;;;;9.00;96.70;;;;;;5019970;28;19984;-61
2021/12/28 05:10:10;;;;;;;;;;;9.10;96.70;;;;;;5008384;28;20347;-62
2021/12/28 05:12:36;;;;;;;;;;;9.00;96.70;;;;;;4994304;28;19964;-62
2021/12/28 05:15:02;;;;;;;;;;;8.90;96.70;;;;;;4998647;28;19913;-62
2021/12/28 05:17:28;;;;;;;;;;;8.90;96.60;;;;;;4999884;28;20368;-61
2021/12/28 05:19:53;;;;;;;;;;;9.00;96.70;;;;;;5005794;28;19916;-61
2021/12/28 05:22:19;;;;;;;;;;;9.00;96.70;;;;;;5023479;28;20292;-62
2021/12/28 05:24:45;;;;;;;;;;;8.90;96.70;;;;;;5006371;28;19917;-62
2021/12/28 05:27:10;;;;;;;;;;;8.90;96.70;;;;;;5009496;28;19916;-62
2021/12/28 05:29:36;;;;;;;;;;;8.90;96.70;;;;;;5007076;28;19913;-62
2021/12/28 05:32:01;;;;;;;;;;;9.00;96.80;;;;;;5023241;28;19913;-62
2021/12/28 05:34:27;;;;;;;;;;;9.00;96.80;;;;;;5022142;28;20289;-61
2021/12/28 05:36:52;;;;;;;;;;;8.90;96.80;;;;;;5007592;28;19954;-62
2021/12/28 05:39:17;;;;;;;;;;;8.90;96.70;;;;;;5022264;28;19979;-62
2021/12/28 05:41:43;;;;;;;;;;;8.90;96.80;;;;;;5005975;28;20333;-62
2021/12/28 05:44:08;;;;;;;;;;;8.90;96.70;;;;;;5017943;28;19921;-62
2021/12/28 05:46:34;;;;;;;;;;;8.90;96.70;;;;;;5018288;28;19914;-62
2021/12/28 05:48:59;;;;;;;;;;;8.90;96.80;;;;;;5005410;28;20262;-62
2021/12/28 05:51:25;;;;;;;;;;;8.90;96.80;;;;;;5023864;28;19913;-62
2021/12/28 05:53:50;;;;;;;;;;;8.90;96.80;;;;;;5007026;28;19916;-61
2021/12/28 05:56:16;;;;;;;;;;;9.00;96.80;;;;;;5007849;28;20000;-62
2021/12/28 05:58:41;;;;;;;;;;;8.90;96.70;;;;;;5010650;28;20392;-62
2021/12/28 06:01:06;;;;;;;;;;;8.90;96.70;;;;;;5003279;28;19925;-62
2021/12/28 06:03:32;;;;;;;;;;;8.90;96.70;;;;;;5008496;28;20001;-62
2021/12/28 06:05:57;;;;;;;;;;;8.90;96.80;;;;;;5005313;28;19916;-62
2021/12/28 06:08:23;;;;;;;;;;;8.90;96.80;;;;;;4993456;28;19909;-62
2021/12/28 06:10:48;;;;;;;;;;;8.90;96.80;;;;;;5004282;28;19971;-62
2021/12/28 06:13:14;;;;;;;;;;;8.90;96.80;;;;;;5007640;28;19939;-62
2021/12/28 06:15:39;;;;;;;;;;;8.90;96.80;;;;;;5026354;28;19909;-61
2021/12/28 06:18:05;;;;;;;;;;;8.90;96.80;;;;;;5005694;28;19917;-62
2021/12/28 06:20:30;;;;;;;;;;;8.90;96.80;;;;;;5004679;28;20000;-62
2021/12/28 06:22:55;;;;;;;;;;;8.90;96.80;;;;;;4991502;28;19909;-62
2021/12/28 06:25:21;;;;;;;;;;;8.90;96.90;;;;;;5029362;28;19935;-61
2021/12/28 06:27:46;;;;;;;;;;;8.90;96.90;;;;;;5005529;28;19920;-62
2021/12/28 06:30:12;;;;;;;;;;;8.90;96.90;;;;;;5005344;28;19995;-61
2021/12/28 06:32:37;;;;;;;;;;;8.90;96.90;;;;;;5012461;28;20008;-62
2021/12/28 06:35:03;;;;;;;;;;;8.90;96.90;;;;;;5007162;28;19909;-62
2021/12/28 06:37:29;;;;;;;;;;;8.90;96.90;;;;;;5027935;28;20008;-62
2021/12/28 06:39:54;;;;;;;;;;;9.00;96.90;;;;;;5006112;28;19920;-61
2021/12/28 06:42:19;;;;;;;;;;;9.00;96.90;;;;;;5006678;28;19909;-62
2021/12/28 06:44:47;;;;;;;;;;;9.00;96.90;;;;;;5012762;28;20366;-62
2021/12/28 06:47:12;;;;;;;;;;;9.00;96.90;;;;;;5000816;28;19921;-62
2021/12/28 06:49:38;;;;;;;;;;;9.00;96.90;;;;;;5009325;28;19923;-61
2021/12/28 06:52:03;;;;;;;;;;;9.00;96.90;;;;;;4991451;28;19917;-62
2021/12/28 06:54:29;;;;;;;;;;;9.00;96.90;;;;;;5015228;28;19909;-62
2021/12/28 06:56:54;;;;;;;;;;;9.00;96.90;;;;;;5020670;28;19913;-62
2021/12/28 06:59:20;;;;;;;;;;;9.00;96.90;;;;;;5005223;28;20434;-62
2021/12/28 07:01:45;;;;;;;;;;;9.00;96.90;;;;;;5026698;28;19921;-62
2021/12/28 07:04:11;;;;;;;;;;;9.00;96.90;;;;;;5006609;28;19910;-62
2021/12/28 07:06:36;;;;;;;;;;;9.00;96.90;;;;;;5006372;28;19936;-62
2021/12/28 07:09:02;;;;;;;;;;;9.00;96.90;;;;;;5018437;28;19910;-62
2021/12/28 07:11:27;;;;;;;;;;;9.00;96.90;;;;;;5029456;28;19967;-62
2021/12/28 07:13:53;;;;;;;;;;;9.00;97.00;;;;;;5001637;28;20381;-62
2021/12/28 07:16:19;;;;;;;;;;;9.00;97.00;;;;;;4987914;28;19943;-62
2021/12/28 07:18:45;;;;;;;;;;;9.10;97.00;;;;;;4998322;28;19979;-62
2021/12/28 07:21:10;;;;;;;;;;;9.00;97.10;;;;;;5005023;28;20344;-62
2021/12/28 07:23:35;;;;;;;;;;;9.00;97.10;;;;;;5022001;28;19913;-62
2021/12/28 07:26:01;;;;;;;;;;;9.10;97.10;;;;;;4999298;28;19959;-62
2021/12/28 07:28:26;;;;;;;;;;;9.00;97.10;;;;;;5016134;28;19910;-62
2021/12/28 07:30:53;;;;;;;;;;;9.00;97.10;;;;;;5021323;28;19920;-62
2021/12/28 07:33:18;;;;;;;;;;;9.10;97.10;;;;;;5027978;28;20373;-62
2021/12/28 07:35:44;;;;;;;;;;;9.10;97.10;;;;;;5026199;28;19916;-62
2021/12/28 07:38:09;;;;;;;;;;;9.10;97.10;;;;;;5021499;28;19921;-62
2021/12/28 07:40:35;;;;;;;;;;;9.10;97.10;;;;;;5006696;28;20339;-62
2021/12/28 07:43:00;;;;;;;;;;;9.10;97.10;;;;;;4995132;28;19940;-62
2021/12/28 07:45:26;;;;;;;;;;;9.00;97.20;;;;;;5026188;28;19921;-62
2021/12/28 07:47:51;;;;;;;;;;;9.10;97.30;;;;;;5005605;28;20295;-62
2021/12/28 07:50:17;;;;;;;;;;;9.00;97.30;;;;;;5003916;28;19913;-62
2021/12/28 07:52:42;;;;;;;;;;;9.10;97.40;;;;;;5028041;28;19979;-62
2021/12/28 07:55:08;;;;;;;;;;;9.10;97.50;;;;;;5004490;28;19920;-62
2021/12/28 07:57:34;;;;;;;;;;;9.10;97.50;;;;;;5029604;28;19913;-61
2021/12/28 08:00:00;;;;;;;;;;;9.10;97.60;;;;;;4999996;28;20274;-61
2021/12/28 08:02:25;;;;;;;;;;;9.10;97.70;;;;;;5001874;28;20293;-63
2021/12/28 08:04:51;;;;;;;;;;;9.10;97.80;;;;;;5027200;28;19956;-62
2021/12/28 08:07:16;;;;;;;;;;;9.00;97.70;;;;;;4998562;28;19964;-62
2021/12/28 08:09:41;;;;;;;;;;;9.10;97.80;;;;;;5025845;28;20294;-62
2021/12/28 08:12:07;;;;;;;;;;;9.10;97.90;;;;;;5011298;28;19909;-61
2021/12/28 08:14:33;;;;;;;;;;;9.10;97.90;;;;;;5016148;28;19913;-62
2021/12/28 08:16:58;;;;;;;;;;;9.10;97.90;;;;;;4998664;28;19988;-62
2021/12/28 08:19:24;;;;;;;;;;;9.10;97.90;;;;;;5025798;28;20387;-62
2021/12/28 08:21:49;;;;;;;;;;;9.10;97.90;;;;;;5019700;28;19909;-61
2021/12/28 08:24:14;;;;;;;;;;;9.10;98.00;;;;;;5019851;28;19995;-62
2021/12/28 08:26:40;;;;;;;;;;;9.10;98.00;;;;;;5004965;28;20478;-62
2021/12/28 08:29:05;;;;;;;;;;;9.10;98.00;;;;;;4989980;28;19909;-62
2021/12/28 08:31:31;;;;;;;;;;;9.10;98.00;;;;;;5024040;28;20017;-62
2021/12/28 08:33:56;;;;;;;;;;;9.10;98.00;;;;;;4997359;28;20266;-62
2021/12/28 08:36:22;;;;;;;;;;;9.10;98.00;;;;;;5009909;28;19909;-62
2021/12/28 08:38:47;;;;;;;;;;;9.10;98.00;;;;;;5027000;28;19935;-62
2021/12/28 08:41:13;;;;;;;;;;;9.10;98.00;;;;;;5011106;28;20297;-62
2021/12/28 08:43:38;;;;;;;;;;;9.10;97.90;;;;;;5009007;28;19917;-61
2021/12/28 08:46:04;;;;;;;;;;;9.10;97.90;;;;;;5021666;28;19909;-61
2021/12/28 08:48:29;;;;;;;;;;;9.10;97.90;;;;;;5015323;28;19927;-62
2021/12/28 08:50:54;;;;;;;;;;;9.10;97.90;;;;;;5013561;28;19913;-62
2021/12/28 08:53:20;;;;;;;;;;;9.10;97.90;;;;;;5014239;28;19935;-62
2021/12/28 08:55:46;;;;;;;;;;;9.10;98.00;;;;;;5023184;28;19921;-62
2021/12/28 08:58:11;;;;;;;;;;;9.20;98.00;;;;;;5024617;28;19991;-62
2021/12/28 09:00:37;;;;;;;;;;;9.10;98.00;;;;;;5026445;28;19953;-62
2021/12/28 09:03:03;;;;;;;;;;;9.20;98.00;;;;;;5030961;28;20387;-62
2021/12/28 09:05:28;;;;;;;;;;;9.20;98.10;;;;;;5011413;28;20000;-61
2021/12/28 09:07:54;;;;;;;;;;;9.20;98.00;;;;;;5012164;28;19916;-62
2021/12/28 09:10:21;;;;;;;;;;;9.20;98.00;;;;;;5029725;28;21449;-62
2021/12/28 09:12:46;;;;;;;;;;;9.20;98.00;;;;;;5024310;28;20008;-62
2021/12/28 09:15:12;;;;;;;;;;;9.20;97.90;;;;;;5000393;28;19910;-62
2021/12/28 09:17:38;;;;;;;;;;;9.20;97.90;;;;;;5028105;28;20004;-62
2021/12/28 09:20:04;;;;;;;;;;;9.30;97.90;;;;;;4998330;28;19920;-62
2021/12/28 09:22:29;;;;;;;;;;;9.30;97.90;;;;;;5031101;28;19913;-62
2021/12/28 09:24:55;;;;;;;;;;;9.30;98.00;;;;;;5013357;28;19909;-63
2021/12/28 09:27:20;;;;;;;;;;;9.30;98.00;;;;;;5027485;28;19909;-62
2021/12/28 09:29:46;;;;;;;;;;;9.30;97.90;;;;;;5029010;28;19967;-62
2021/12/28 09:32:11;;;;;;;;;;;9.40;97.90;;;;;;5030516;28;19916;-62
2021/12/28 09:34:37;;;;;;;;;;;9.30;98.00;;;;;;5000773;28;19968;-63
2021/12/28 09:37:02;;;;;;;;;;;9.40;98.10;;;;;;5013630;28;20426;-62
2021/12/28 09:39:28;;;;;;;;;;;9.40;98.20;;;;;;5012320;28;20387;-62
2021/12/28 09:41:55;;;;;;;;;;;9.40;98.20;;;;;;5012026;28;20262;-63
2021/12/28 09:44:21;;;;;;;;;;;9.50;98.20;;;;;;5013347;28;20387;-62
2021/12/28 09:46:46;;;;;;;;;;;9.50;98.10;;;;;;5028906;28;19928;-63
2021/12/28 09:49:12;;;;;;;;;;;9.50;98.30;;;;;;5029934;28;19909;-62
2021/12/28 09:51:37;;;;;;;;;;;9.50;98.30;;;;;;5005800;28;19916;-62
2021/12/28 09:54:02;;;;;;;;;;;9.60;98.40;;;;;;5027756;28;19928;-62
2021/12/28 09:56:28;;;;;;;;;;;9.60;98.40;;;;;;5029615;28;20011;-62
2021/12/28 09:58:53;;;;;;;;;;;9.60;98.50;;;;;;5029117;28;19913;-62
2021/12/28 10:01:20;;;;;;;;;;;9.60;98.50;;;;;;5012920;28;19928;-61
2021/12/28 10:03:46;;;;;;;;;;;9.60;98.60;;;;;;5021739;28;19947;-63
2021/12/28 10:06:15;;;;;;;;;;;9.60;98.60;;;;;;5024163;28;20008;-61
2021/12/28 10:08:41;;;;;;;;;;;9.70;98.60;;;;;;5020983;28;19921;-62
2021/12/28 10:11:07;;;;;;;;;;;9.70;98.60;;;;;;5002850;28;20186;-62
2021/12/28 10:13:33;;;;;;;;;;;9.70;98.70;;;;;;5004350;28;20352;-61
2021/12/28 10:15:58;;;;;;;;;;;9.70;98.90;;;;;;5022841;28;19925;-61
2021/12/28 10:18:23;;;;;;;;;;;9.70;99.10;;;;;;5005347;28;20790;-61
2021/12/28 10:20:50;;;;;;;;;;;9.70;99.20;;;;;;5015432;28;19971;-62
2021/12/28 10:23:20;;;;;;;;;;;9.70;99.10;;;;;;5007750;28;19917;-61
2021/12/28 10:25:47;;;;;;;;;;;9.80;99.00;;;;;;5026550;28;19959;-61
2021/12/28 10:28:14;;;;;;;;;;;9.80;99.00;;;;;;5007988;28;20391;-62
2021/12/28 10:30:41;;;;;;;;;;;9.90;99.10;;;;;;5004545;28;19921;-61
2021/12/28 10:33:16;;;;;;;;;;;9.90;99.10;;;;;;5025884;28;19925;-61
2021/12/28 10:35:46;;;;;;;;;;;9.90;99.00;;;;;;4993173;28;20385;-62
2021/12/28 10:38:12;;;;;;;;;;;9.90;99.10;;;;;;5007182;28;19921;-61
2021/12/28 10:40:39;;;;;;;;;;;10.00;99.10;;;;;;5004228;28;19953;-62
2021/12/28 10:43:11;;;;;;;;;;;10.00;99.20;;;;;;5017924;28;19979;-62
2021/12/28 10:45:41;;;;;;;;;;;10.00;99.20;;;;;;5010258;28;20019;-62
2021/12/28 10:48:07;;;;;;;;;;;10.00;99.30;;;;;;5012693;28;20357;-62
2021/12/28 10:50:36;;;;;;;;;;;10.00;99.20;;;;;;5007057;28;20010;-62
2021/12/28 10:53:10;;;;;;;;;;;10.10;99.30;;;;;;5023475;28;19917;-62
2021/12/28 10:55:35;;;;;;;;;;;10.10;99.30;;;;;;5017038;28;19936;-62
2021/12/28 10:58:02;;;;;;;;;;;10.10;99.50;;;;;;5012091;28;19944;-62
2021/12/28 11:00:35;;;;;;;;;;;10.20;99.60;;;;;;5000093;28;19949;-63
2021/12/28 11:03:13;;;;;;;;;;;10.20;99.50;;;;;;5018132;28;19913;-65
2021/12/28 11:05:38;;;;;;;;;;;10.30;99.50;;;;;;5022898;28;20482;-63
2021/12/28 11:08:07;;;;;;;;;;;10.30;99.50;;;;;;5021165;28;19952;-62
2021/12/28 11:10:32;;;;;;;;;;;10.30;99.50;;;;;;5022806;28;20007;-62
2021/12/28 11:12:58;;;;;;;;;;;10.30;99.60;;;;;;5015239;28;19975;-62
2021/12/28 11:15:24;;;;;;;;;;;10.30;99.60;;;;;;5023922;28;19909;-62
2021/12/28 11:17:50;;;;;;;;;;;10.30;99.70;;;;;;5007387;28;19920;-61
2021/12/28 11:20:15;;;;;;;;;;;10.40;99.80;;;;;;5028042;28;19909;-62
2021/12/28 11:22:44;;;;;;;;;;;10.40;99.70;;;;;;5023926;28;20415;-62
2021/12/28 11:25:16;;;;;;;;;;;10.40;99.70;;;;;;4991819;28;19921;-62
2021/12/28 11:27:41;;;;;;;;;;;10.50;99.80;;;;;;5005277;28;19913;-62
2021/12/28 11:30:13;;;;;;;;;;;10.50;99.90;;;;;;4999005;28;19920;-62
2021/12/28 11:32:39;;;;;;;;;;;10.50;99.90;;;;;;5025593;28;19994;-62
2021/12/28 11:35:06;;;;;;;;;;;10.50;99.90;;;;;;4991566;28;19922;-62
2021/12/28 11:37:32;;;;;;;;;;;10.50;99.90;;;;;;5010585;28;19967;-59
2021/12/28 11:40:01;;;;;;;;;;;10.50;99.90;;;;;;5009664;28;19913;-60
2021/12/28 11:42:27;;;;;;;;;;;10.50;99.90;;;;;;4994384;28;19913;-59
2021/12/28 11:44:52;;;;;;;;;;;10.50;99.90;;;;;;5010194;28;19913;-60
2021/12/28 11:47:18;;;;;;;;;;;10.50;99.90;;;;;;5009851;28;19959;-60
2021/12/28 11:49:45;;;;;;;;;;;10.50;99.90;;;;;;4992150;28;19921;-60
2021/12/28 11:52:14;;;;;;;;;;;10.60;99.90;;;;;;5008177;28;19986;-59
2021/12/28 11:54:41;;;;;;;;;;;10.60;99.90;;;;;;4997579;28;20403;-60
2021/12/28 11:57:07;;;;;;;;;;;10.60;99.90;;;;;;5010820;28;20015;-60
2021/12/28 11:59:33;;;;;;;;;;;10.70;99.90;;;;;;5017289;28;20456;-60
2021/12/28 12:01:59;;;;;;;;;;;10.70;99.90;;;;;;5008890;28;20016;-59
2021/12/28 12:04:34;;;;;;;;;;;10.60;99.90;;;;;;5005700;28;19932;-60
2021/12/28 12:07:09;;;;;;;;;;;10.70;99.90;;;;;;5028045;28;19910;-60
2021/12/28 12:09:50;;;;;;;;;;;10.70;99.90;;;;;;5006260;28;19919;-60
2021/12/28 12:12:17;;;;;;;;;;;10.70;99.90;;;;;;5024609;28;19949;-60
2021/12/28 12:14:58;;;;;;;;;;;10.70;99.90;;;;;;5004226;28;19913;-60
2021/12/28 12:17:43;;;;;;;;;;;10.80;99.90;;;;;;5004254;28;19948;-60
2021/12/28 12:20:09;;;;;;;;;;;10.80;99.90;;;;;;5031697;28;19924;-59
2021/12/28 12:22:38;;;;;;;;;;;10.80;99.90;;;;;;5012959;28;19913;-60
2021/12/28 12:25:04;;;;;;;;;;;10.90;99.90;;;;;;5030675;28;20016;-59
2021/12/28 12:27:49;;;;;;;;;;;10.90;99.90;;;;;;5025143;28;20000;-60
2021/12/28 12:30:17;;;;;;;;;;;10.90;99.90;;;;;;5006875;28;20269;-60
2021/12/28 12:32:55;;;;;;;;;;;10.80;99.90;;;;;;5024310;28;20052;-60
2021/12/28 12:35:30;;;;;;;;;;;10.90;99.90;;;;;;5026468;28;20415;-59
2021/12/28 12:37:56;;;;;;;;;;;10.90;99.90;;;;;;5023865;28;19939;-59
2021/12/28 12:40:21;;;;;;;;;;;10.90;99.90;;;;;;5025701;28;19961;-60
2021/12/28 12:43:05;;;;;;;;;;;10.90;99.90;;;;;;5014238;28;20007;-60
2021/12/28 12:45:50;;;;;;;;;;;11.00;99.90;;;;;;5029691;28;19924;-60
2021/12/28 12:48:30;;;;;;;;;;;11.00;99.90;;;;;;5032994;28;20395;-61
2021/12/28 12:51:29;;;;;;;;;;;11.00;99.90;;;;;;5022205;28;19916;-60
2021/12/28 12:54:06;;;;;;;;;;;11.00;99.90;;;;;;5016487;28;20341;-60
2021/12/28 12:56:32;;;;;;;;;;;11.00;99.90;;;;;;5019729;28;19920;-60
2021/12/28 12:59:03;;;;;;;;;;;11.00;99.90;;;;;;5007009;28;20011;-60
2021/12/28 13:01:30;;;;;;;;;;;11.00;99.90;;;;;;5027226;28;19929;-60
2021/12/28 13:03:57;;;;;;;;;;;11.10;99.90;;;;;;5021866;28;20296;-60
2021/12/28 13:06:41;;;;;;;;;;;11.10;99.90;;;;;;5028052;28;19976;-59
2021/12/28 13:09:06;;;;;;;;;;;11.10;99.90;;;;;;5026647;28;20338;-59
2021/12/28 13:11:32;;;;;;;;;;;11.10;99.90;;;;;;5026735;28;19913;-60
2021/12/28 13:13:57;;;;;;;;;;;11.20;99.90;;;;;;5020218;28;19999;-60
2021/12/28 13:16:23;;;;;;;;;;;11.20;99.90;;;;;;5015928;28;19917;-60
2021/12/28 13:18:48;;;;;;;;;;;11.20;99.90;;;;;;5024076;28;19925;-60
2021/12/28 13:21:20;;;;;;;;;;;11.20;99.90;;;;;;5021706;28;20296;-60
2021/12/28 13:24:24;;;;;;;;;;;11.20;99.90;;;;;;5026827;28;19925;-60
2021/12/28 13:26:50;;;;;;;;;;;11.20;99.90;;;;;;5022765;28;20442;-60
2021/12/28 13:29:25;;;;;;;;;;;11.20;99.90;;;;;;4987043;28;19913;-60
2021/12/28 13:31:51;;;;;;;;;;;11.20;99.90;;;;;;5017830;28;19971;-60
2021/12/28 13:34:16;;;;;;;;;;;11.20;99.90;;;;;;5024714;28;19948;-60
2021/12/28 13:36:51;;;;;;;;;;;11.20;99.90;;;;;;5028604;28;19917;-60
2021/12/28 13:39:17;;;;;;;;;;;11.30;99.90;;;;;;5012572;28;19913;-60
2021/12/28 13:41:49;;;;;;;;;;;11.30;99.90;;;;;;5027459;28;20285;-60
2021/12/28 13:44:14;;;;;;;;;;;11.30;99.90;;;;;;5020461;28;19971;-61
2021/12/28 13:46:40;;;;;;;;;;;11.30;99.90;;;;;;5045049;28;19945;-60
2021/12/28 13:49:05;;;;;;;;;;;11.30;99.90;;;;;;5024014;28;19913;-60
2021/12/28 13:51:31;;;;;;;;;;;11.30;99.90;;;;;;5027667;28;19913;-60
2021/12/28 13:53:57;;;;;;;;;;;11.30;99.90;;;;;;5042048;28;20285;-60
2021/12/28 13:56:25;;;;;;;;;;;11.30;99.90;;;;;;5022757;28;19917;-60
2021/12/28 13:58:51;;;;;;;;;;;11.30;99.90;;;;;;5029291;28;19921;-60
2021/12/28 14:01:18;;;;;;;;;;;11.40;99.90;;;;;;5020747;28;19933;-61
2021/12/28 14:04:02;;;;;;;;;;;11.40;99.90;;;;;;5045387;28;19913;-60
2021/12/28 14:06:28;;;;;;;;;;;11.40;99.90;;;;;;5023889;28;19916;-60
2021/12/28 14:08:54;;;;;;;;;;;11.40;99.90;;;;;;5023115;28;20028;-60
2021/12/28 14:11:29;;;;;;;;;;;11.50;99.90;;;;;;5038391;28;19928;-60
2021/12/28 14:13:54;;;;;;;;;;;11.50;99.90;;;;;;5035063;28;19948;-60
2021/12/28 14:16:20;;;;;;;;;;;11.40;99.90;;;;;;5034955;28;20885;-60
2021/12/28 14:18:46;;;;;;;;;;;11.50;99.90;;;;;;5019504;28;19924;-62
2021/12/28 14:21:11;;;;;;;;;;;11.50;99.90;;;;;;5016906;28;20000;-62
2021/12/28 14:23:37;;;;;;;;;;;11.50;99.90;;;;;;5021133;28;20020;-62
2021/12/28 14:26:06;;;;;;;;;;;11.50;99.90;;;;;;5010742;28;19913;-60